createdAt,value
2023-03-18T00:04:37.725Z,6.20
2023-03-18T00:09:40.339Z,6.30
2023-03-18T00:14:42.040Z,5.95
2023-03-18T00:19:43.925Z,6.32
2023-03-18T00:24:45.948Z,6.43
2023-03-18T00:29:47.649Z,5.82
2023-03-18T00:34:50.650Z,5.57
2023-03-18T00:39:52.436Z,6.22
2023-03-18T00:44:54.364Z,5.95
2023-03-18T00:49:56.483Z,6.13
2023-03-18T00:54:58.199Z,5.55
2023-03-18T01:00:00.049Z,6.13
2023-03-18T01:05:02.542Z,5.90
2023-03-18T01:10:04.761Z,5.88
2023-03-18T01:15:12.866Z,5.90
2023-03-18T01:20:17.942Z,6.30
2023-03-18T01:25:20.338Z,5.88
2023-03-18T01:30:23.599Z,5.90
2023-03-18T01:35:25.767Z,5.90
2023-03-18T01:40:28.608Z,6.20
2023-03-18T01:45:30.944Z,5.85
2023-03-18T01:50:37.909Z,5.68
2023-03-18T01:55:41.112Z,6.03
2023-03-18T02:00:51.698Z,6.20
2023-03-18T02:05:54.183Z,5.90
2023-03-18T02:10:56.020Z,5.30
2023-03-18T02:16:05.263Z,5.78
2023-03-18T02:21:20.681Z,5.55
2023-03-18T02:27:16.188Z,5.57
2023-03-18T02:32:20.231Z,5.70
2023-03-18T02:37:21.901Z,5.78
2023-03-18T02:42:31.530Z,5.60
2023-03-18T02:47:33.285Z,5.78
2023-03-18T02:52:35.353Z,5.85
2023-03-18T02:57:37.180Z,6.07
2023-03-18T03:02:39.147Z,5.72
2023-03-18T03:07:41.451Z,5.85
2023-03-18T03:12:43.180Z,5.88
2023-03-18T03:17:45.261Z,5.28
2023-03-18T03:22:47.165Z,5.63
2023-03-18T03:27:49.786Z,5.53
2023-03-18T03:32:52.300Z,5.15
2023-03-18T03:37:54.019Z,5.63
2023-03-18T03:42:56.057Z,5.35
2023-03-18T03:47:57.802Z,5.32
2023-03-18T03:52:59.572Z,5.05
2023-03-18T03:58:01.777Z,5.30
2023-03-18T04:03:04.383Z,5.55
2023-03-18T04:08:06.533Z,4.93
2023-03-18T04:13:08.853Z,4.93
2023-03-18T04:18:10.579Z,5.20
2023-03-18T04:23:12.648Z,4.65
2023-03-18T04:28:14.869Z,5.05
2023-03-18T04:33:17.863Z,5.57
2023-03-18T04:38:20.460Z,5.10
2023-03-18T04:43:22.283Z,4.93
2023-03-18T04:48:24.110Z,5.22
2023-03-18T04:53:26.236Z,4.70
2023-03-18T04:58:28.185Z,5.28
2023-03-18T05:03:30.079Z,4.85
2023-03-18T05:08:31.873Z,5.43
2023-03-18T05:13:33.549Z,5.00
2023-03-18T05:18:35.625Z,5.22
2023-03-18T05:23:38.704Z,5.10
2023-03-18T05:28:40.634Z,4.97
2023-03-18T05:33:42.574Z,4.75
2023-03-18T05:38:44.250Z,4.80
2023-03-18T05:43:46.272Z,4.82
2023-03-18T05:48:47.950Z,4.78
2023-03-18T05:53:50.394Z,4.78
2023-03-18T05:58:52.251Z,5.15
2023-03-18T06:03:55.156Z,4.88
2023-03-18T06:08:56.933Z,5.38
2023-03-18T06:13:59.817Z,5.22
2023-03-18T06:19:02.516Z,4.82
2023-03-18T06:24:04.764Z,4.65
2023-03-18T06:29:07.058Z,5.28
2023-03-18T06:34:08.771Z,4.57
2023-03-18T06:39:10.731Z,5.32
2023-03-18T06:44:13.225Z,4.57
2023-03-18T06:49:15.179Z,4.70
2023-03-18T06:54:16.852Z,4.80
2023-03-18T06:59:21.492Z,5.15
2023-03-18T07:04:23.854Z,5.68
2023-03-18T07:09:28.441Z,6.18
2023-03-18T07:14:30.661Z,5.38
2023-03-18T07:19:33.237Z,5.30
2023-03-18T07:24:35.947Z,5.38
2023-03-18T07:29:38.169Z,5.78
2023-03-18T07:34:40.450Z,5.30
2023-03-18T07:39:44.113Z,5.60
2023-03-18T07:44:45.943Z,5.45
2023-03-18T07:49:47.705Z,5.35
2023-03-18T07:54:49.471Z,5.55
2023-03-18T07:59:51.970Z,5.20
2023-03-18T08:04:54.216Z,5.38
2023-03-18T08:09:56.067Z,5.47
2023-03-18T08:14:58.086Z,5.43
2023-03-18T08:19:59.761Z,5.45
2023-03-18T08:25:01.559Z,6.70
2023-03-18T08:30:04.221Z,5.10
2023-03-18T08:35:06.577Z,5.53
2023-03-18T08:40:09.857Z,5.00
2023-03-18T08:45:12.492Z,4.72
2023-03-18T08:50:15.238Z,4.70
2023-03-18T08:55:17.003Z,5.30
2023-03-18T09:00:20.260Z,5.28
2023-03-18T09:05:22.107Z,5.15
2023-03-18T09:10:24.351Z,4.90
2023-03-18T09:15:27.297Z,4.90
2023-03-18T09:20:29.050Z,5.30
2023-03-18T09:25:31.102Z,4.95
2023-03-18T09:30:33.746Z,5.35
2023-03-18T09:35:36.678Z,4.72
2023-03-18T09:40:51.172Z,5.10
2023-03-18T09:46:17.978Z,4.82
2023-03-18T09:51:47.397Z,4.57
2023-03-18T09:56:52.563Z,4.47
2023-03-18T10:01:56.727Z,4.65
2023-03-18T10:07:02.850Z,4.40
2023-03-18T10:12:21.158Z,4.10
2023-03-18T10:17:35.511Z,4.57
2023-03-18T10:22:50.451Z,3.92
2023-03-18T10:28:01.337Z,3.92
2023-03-18T10:33:24.727Z,3.92
2023-03-18T10:38:36.326Z,4.07
2023-03-18T10:43:38.208Z,4.13
2023-03-18T10:48:59.235Z,3.65
2023-03-18T10:54:24.950Z,3.90
2023-03-18T10:59:28.657Z,4.28
2023-03-18T11:04:38.643Z,4.38
2023-03-18T11:09:42.405Z,4.43
2023-03-18T11:14:48.990Z,4.32
2023-03-18T11:20:00.984Z,4.70
2023-03-18T11:25:11.639Z,4.22
2023-03-18T11:30:34.090Z,4.45
2023-03-18T11:35:48.059Z,4.03
2023-03-18T11:40:49.965Z,4.50
2023-03-18T11:45:59.008Z,4.63
2023-03-18T11:51:09.303Z,4.60
2023-03-18T11:56:42.891Z,4.45
2023-03-18T12:02:26.815Z,5.07
2023-03-18T12:08:06.288Z,4.90
2023-03-18T12:13:11.758Z,4.65
2023-03-18T12:18:51.557Z,5.25
2023-03-18T12:24:11.006Z,4.53
2023-03-18T12:29:31.818Z,5.18
2023-03-18T12:34:45.382Z,4.88
2023-03-18T12:39:59.165Z,5.03
2023-03-18T12:45:15.360Z,4.65
2023-03-18T12:50:41.367Z,6.20
2023-03-18T12:55:48.095Z,3.97
2023-03-18T13:01:19.110Z,3.90
2023-03-18T13:06:29.766Z,3.38
2023-03-18T13:12:01.961Z,2.97
2023-03-18T13:17:05.055Z,3.10
2023-03-18T13:22:41.960Z,3.13
2023-03-18T13:27:49.495Z,3.70
2023-03-18T13:32:58.843Z,3.05
2023-03-18T13:38:18.227Z,4.38
2023-03-18T13:43:24.078Z,3.03
2023-03-18T13:48:33.660Z,2.45
2023-03-18T13:53:41.707Z,3.25
2023-03-18T13:58:47.638Z,2.83
2023-03-18T14:03:49.373Z,2.88
2023-03-18T14:08:52.849Z,4.05
2023-03-18T14:14:01.980Z,2.50
2023-03-18T14:19:17.201Z,2.92
2023-03-18T14:24:18.907Z,2.50
2023-03-18T14:29:34.607Z,2.40
2023-03-18T14:34:56.549Z,2.53
2023-03-18T14:40:18.086Z,2.60
2023-03-18T14:45:25.811Z,2.72
2023-03-18T14:50:29.343Z,3.17
2023-03-18T14:55:34.902Z,2.47
2023-03-18T15:00:37.378Z,2.78
2023-03-18T15:05:41.596Z,2.95
2023-03-18T15:10:45.685Z,2.60
2023-03-18T15:15:47.432Z,4.20
2023-03-18T15:20:53.042Z,3.85
2023-03-18T15:25:55.844Z,2.58
2023-03-18T15:31:00.341Z,2.20
2023-03-18T15:36:12.738Z,2.13
2023-03-18T15:41:17.835Z,2.47
2023-03-18T15:46:30.822Z,2.20
2023-03-18T15:51:43.054Z,3.35
2023-03-18T15:56:49.313Z,1.70
2023-03-18T16:01:52.574Z,2.65
2023-03-18T16:06:54.690Z,2.20
2023-03-18T16:12:06.323Z,2.30
2023-03-18T16:17:12.397Z,2.35
2023-03-18T16:22:15.195Z,2.40
2023-03-18T16:27:39.189Z,5.28
2023-03-18T16:32:40.939Z,2.55
2023-03-18T16:37:44.387Z,2.60
2023-03-18T16:42:49.171Z,2.13
2023-03-18T16:47:52.031Z,2.60
2023-03-18T16:52:54.856Z,3.38
2023-03-18T16:57:59.445Z,2.95
2023-03-18T17:03:02.109Z,4.13
2023-03-18T17:08:04.245Z,3.45
2023-03-18T17:13:07.598Z,3.75
2023-03-18T17:18:21.230Z,5.03
2023-03-18T17:23:26.768Z,4.55
2023-03-18T17:28:40.270Z,5.38
2023-03-18T17:33:42.463Z,5.45
2023-03-18T17:38:44.296Z,6.72
2023-03-18T17:43:46.662Z,10.45
2023-03-18T17:48:49.232Z,8.75
2023-03-18T17:53:58.977Z,8.00
2023-03-18T17:59:00.934Z,9.25
2023-03-18T18:04:03.453Z,8.38
2023-03-18T18:09:05.863Z,8.27
2023-03-18T18:14:25.962Z,9.77
2023-03-18T18:19:28.882Z,9.45
2023-03-18T18:24:33.259Z,9.63
2023-03-18T18:29:35.198Z,10.32
2023-03-18T18:34:36.963Z,10.55
2023-03-18T18:39:38.894Z,12.18
2023-03-18T18:44:40.786Z,11.40
2023-03-18T18:49:43.112Z,10.60
2023-03-18T18:54:45.229Z,24.83
2023-03-18T18:59:47.564Z,10.00
2023-03-18T19:04:49.306Z,8.70
2023-03-18T19:09:51.351Z,10.13
2023-03-18T19:14:53.390Z,6.93
2023-03-18T19:19:55.549Z,6.55
2023-03-18T19:24:57.288Z,6.20
2023-03-18T19:30:01.554Z,7.25
2023-03-18T19:35:03.472Z,6.93
2023-03-18T19:40:26.665Z,7.72
2023-03-18T19:45:29.327Z,7.50
2023-03-18T19:50:31.649Z,12.27
2023-03-18T19:55:33.581Z,9.88
2023-03-18T20:00:35.337Z,9.25
2023-03-18T20:05:37.041Z,9.25
2023-03-18T20:10:41.832Z,9.40
2023-03-18T20:15:44.034Z,9.68
2023-03-18T20:20:48.829Z,9.65
2023-03-18T20:25:52.348Z,9.80
2023-03-18T20:30:56.591Z,9.43
2023-03-18T20:35:58.919Z,10.60
2023-03-18T20:41:01.834Z,14.13
2023-03-18T20:46:03.983Z,10.80
2023-03-18T20:51:33.203Z,11.10
2023-03-18T20:56:35.245Z,12.27
2023-03-18T21:01:37.109Z,12.55
2023-03-18T21:06:39.665Z,11.27
2023-03-18T21:11:42.098Z,11.90
2023-03-18T21:16:44.026Z,15.85
2023-03-18T21:21:45.997Z,18.35
2023-03-18T21:27:01.554Z,15.05
2023-03-18T21:32:06.402Z,13.43
2023-03-18T21:37:15.438Z,12.15
2023-03-18T21:42:27.583Z,13.38
2023-03-18T21:47:29.378Z,13.15
2023-03-18T21:52:39.468Z,13.25
2023-03-18T21:57:41.458Z,13.10
2023-03-18T22:02:43.279Z,14.32
2023-03-18T22:07:46.016Z,14.05
2023-03-18T22:12:47.803Z,14.00
2023-03-18T22:17:50.197Z,14.18
2023-03-18T22:22:52.127Z,14.55
2023-03-18T22:27:53.946Z,13.73
2023-03-18T22:32:57.230Z,14.35
2023-03-18T22:37:59.324Z,28.17
2023-03-18T22:43:01.869Z,13.93
2023-03-18T22:48:04.920Z,13.30
2023-03-18T22:53:11.822Z,12.68
2023-03-18T22:58:22.831Z,12.50
2023-03-18T23:03:35.969Z,15.02
2023-03-18T23:08:37.710Z,14.88
2023-03-18T23:13:41.991Z,24.33
2023-03-18T23:18:44.052Z,22.45
2023-03-18T23:23:45.893Z,15.57
2023-03-18T23:28:48.759Z,12.50
2023-03-18T23:33:50.579Z,12.07
2023-03-18T23:38:52.249Z,12.27
2023-03-18T23:43:54.109Z,11.75
2023-03-18T23:48:56.323Z,11.63
2023-03-18T23:53:57.994Z,11.30
2023-03-18T23:58:59.887Z,10.63
